Time;durP1;ratioP1;P1;durP2;ratioP2;P2;SDS_P1;SDS_P2;PMS_P1;PMS_P2;Temp;Humidity;BMP_temperature;BMP_pressure;BME280_temperature;BME280_humidity;BME280_pressure;Samples;Min_cycle;Max_cycle;Signal;HPM_P1;HPM_P2
2022/01/12 00:02:12;;;;;;;21.10;16.43;;;;;;;;;;5062109;28;20659;-64
2022/01/12 00:04:40;;;;;;;17.43;13.47;;;;;;;;;;5054827;28;20203;-62
2022/01/12 00:07:08;;;;;;;20.20;14.77;;;;;;;;;;5056979;28;20230;-63
2022/01/12 00:09:36;;;;;;;14.97;10.77;;;;;;;;;;5052114;28;20212;-61
2022/01/12 00:12:04;;;;;;;16.13;11.43;;;;;;;;;;5086699;27;20735;-63
2022/01/12 00:14:32;;;;;;;16.80;10.87;;;;;;;;;;5051727;28;20623;-62
2022/01/12 00:17:00;;;;;;;18.77;10.80;;;;;;;;;;5086934;27;20236;-63
2022/01/12 00:19:29;;;;;;;16.03;10.70;;;;;;;;;;5066378;28;20211;-62
2022/01/12 00:21:56;;;;;;;22.30;13.90;;;;;;;;;;5063041;28;20272;-62
2022/01/12 00:24:39;;;;;;;28.70;17.30;;;;;;;;;;5052892;28;20345;-62
2022/01/12 00:35:25;;;;;;;35.73;18.27;;;;;;;;;;5070805;28;20569;-62
2022/01/12 00:37:52;;;;;;;24.73;15.60;;;;;;;;;;5070286;28;20228;-64
2022/01/12 00:40:20;;;;;;;23.93;14.07;;;;;;;;;;5061520;28;21325;-62
2022/01/12 00:42:47;;;;;;;17.47;11.93;;;;;;;;;;5052373;28;20207;-63
2022/01/12 00:45:17;;;;;;;16.13;10.90;;;;;;;;;;5086560;27;20273;-63
2022/01/12 00:47:45;;;;;;;14.27;10.60;;;;;;;;;;5056014;28;20257;-65
2022/01/12 00:50:12;;;;;;;14.27;10.43;;;;;;;;;;5059890;28;20261;-63
2022/01/12 00:52:40;;;;;;;14.13;10.53;;;;;;;;;;5054510;28;20204;-62
2022/01/12 00:55:07;;;;;;;13.33;10.17;;;;;;;;;;5057540;28;20270;-63
2022/01/12 00:57:35;;;;;;;15.60;10.73;;;;;;;;;;5069867;28;20305;-64
2022/01/12 01:00:03;;;;;;;15.70;10.67;;;;;;;;;;5074466;28;20253;-63
2022/01/12 01:02:31;;;;;;;17.03;10.93;;;;;;;;;;5067484;28;20204;-63
2022/01/12 01:05:00;;;;;;;15.83;10.67;;;;;;;;;;5089707;27;20211;-62
2022/01/12 01:07:28;;;;;;;17.63;11.13;;;;;;;;;;5053897;28;20237;-63
2022/01/12 01:10:05;;;;;;;15.50;11.37;;;;;;;;;;5054203;28;20207;-63
2022/01/12 01:12:35;;;;;;;14.23;10.60;;;;;;;;;;5087578;27;20215;-62
2022/01/12 01:15:07;;;;;;;14.70;11.10;;;;;;;;;;5055157;28;20214;-63
2022/01/12 01:25:39;;;;;;;18.20;12.57;;;;;;;;;;5066931;28;20277;-62
2022/01/12 01:28:07;;;;;;;15.87;12.17;;;;;;;;;;5067075;28;20272;-62
2022/01/12 01:30:36;;;;;;;17.03;12.47;;;;;;;;;;5068029;28;20220;-63
2022/01/12 01:33:07;;;;;;;19.93;13.10;;;;;;;;;;5084125;27;20205;-63
2022/01/12 01:35:36;;;;;;;18.97;13.00;;;;;;;;;;5054074;28;20235;-63
2022/01/12 01:38:03;;;;;;;17.23;12.63;;;;;;;;;;5084123;28;20224;-62
2022/01/12 01:40:36;;;;;;;16.13;12.40;;;;;;;;;;5051295;28;20248;-64
2022/01/12 01:53:52;;;;;;;22.30;15.93;;;;;;;;;;5071868;28;20278;-62
2022/01/12 01:56:19;;;;;;;20.40;14.30;;;;;;;;;;5052706;28;20208;-63
2022/01/12 01:58:47;;;;;;;18.60;13.50;;;;;;;;;;5054184;28;20233;-62
2022/01/12 02:01:15;;;;;;;16.83;13.40;;;;;;;;;;5069503;28;20758;-61
2022/01/12 02:03:44;;;;;;;19.23;13.90;;;;;;;;;;5052958;28;20205;-61
2022/01/12 02:06:11;;;;;;;18.53;13.83;;;;;;;;;;5080499;28;20956;-63
2022/01/12 02:08:39;;;;;;;23.23;15.20;;;;;;;;;;5056336;28;20231;-63
2022/01/12 02:11:06;;;;;;;21.60;15.10;;;;;;;;;;5053438;28;20263;-65
2022/01/12 02:13:34;;;;;;;20.40;14.97;;;;;;;;;;5050295;28;20246;-63
2022/01/12 02:16:01;;;;;;;19.93;13.93;;;;;;;;;;5080239;28;20204;-63
2022/01/12 02:40:27;;;;;;;15.13;10.87;;;;;;;;;;5069476;28;20209;-64
2022/01/12 02:43:43;;;;;;;16.33;12.00;;;;;;;;;;5054410;28;20200;-63
2022/01/12 02:53:53;;;;;;;17.03;11.27;;;;;;;;;;5070282;28;20216;-62
2022/01/12 02:56:27;;;;;;;13.23;9.67;;;;;;;;;;5087228;28;20226;-63
2022/01/12 02:58:59;;;;;;;14.83;11.03;;;;;;;;;;5076242;28;20225;-64
2022/01/12 03:03:57;;;;;;;14.77;10.33;;;;;;;;;;5068155;28;20258;-63
2022/01/12 03:06:29;;;;;;;12.47;9.93;;;;;;;;;;5054917;28;20618;-63
2022/01/12 03:08:57;;;;;;;12.70;9.77;;;;;;;;;;5068306;28;20228;-63
2022/01/12 03:11:25;;;;;;;13.27;9.83;;;;;;;;;;5087856;27;20275;-63
2022/01/12 03:13:53;;;;;;;19.13;12.93;;;;;;;;;;5054201;28;20742;-62
2022/01/12 03:16:24;;;;;;;17.43;12.73;;;;;;;;;;5052155;28;20292;-62
2022/01/12 03:18:52;;;;;;;17.83;12.80;;;;;;;;;;5055969;28;20330;-63
2022/01/12 03:21:22;;;;;;;15.93;10.50;;;;;;;;;;5060737;28;20194;-64
2022/01/12 03:23:50;;;;;;;12.83;10.43;;;;;;;;;;5083116;28;21321;-63
2022/01/12 03:26:18;;;;;;;14.03;10.77;;;;;;;;;;5084047;27;20205;-63
2022/01/12 03:28:52;;;;;;;13.77;10.27;;;;;;;;;;5051736;28;20229;-62
2022/01/12 03:31:22;;;;;;;14.63;11.13;;;;;;;;;;5083799;27;20210;-62
2022/01/12 03:33:59;;;;;;;13.50;10.30;;;;;;;;;;5055935;28;20671;-62
2022/01/12 03:36:39;;;;;;;14.03;11.20;;;;;;;;;;5082534;27;20613;-63
2022/01/12 03:39:11;;;;;;;14.57;10.90;;;;;;;;;;5056171;28;20827;-63
2022/01/12 03:41:39;;;;;;;14.07;10.17;;;;;;;;;;5083339;27;20205;-61
2022/01/12 03:44:09;;;;;;;14.50;10.90;;;;;;;;;;5056386;28;20205;-62
2022/01/12 03:46:44;;;;;;;18.63;12.87;;;;;;;;;;5051402;28;20236;-61
2022/01/12 03:49:11;;;;;;;18.67;12.90;;;;;;;;;;5053270;28;20213;-63
2022/01/12 03:51:39;;;;;;;13.57;11.10;;;;;;;;;;5056932;28;20226;-62
2022/01/12 03:54:06;;;;;;;15.60;11.93;;;;;;;;;;5052232;28;20841;-63
2022/01/12 03:56:34;;;;;;;15.33;11.27;;;;;;;;;;5066055;28;20568;-63
2022/01/12 03:59:01;;;;;;;14.50;11.10;;;;;;;;;;5066814;28;20294;-64
2022/01/12 04:01:28;;;;;;;16.30;11.77;;;;;;;;;;5051655;28;20204;-61
2022/01/12 04:04:05;;;;;;;17.40;11.77;;;;;;;;;;5050487;28;20205;-63
2022/01/12 04:09:39;;;;;;;20.27;13.77;;;;;;;;;;5067851;28;20258;-64
2022/01/12 04:12:07;;;;;;;18.73;13.77;;;;;;;;;;5068371;28;20602;-61
2022/01/12 04:14:34;;;;;;;17.30;12.87;;;;;;;;;;5051939;28;20674;-63
2022/01/12 04:17:02;;;;;;;14.03;11.63;;;;;;;;;;5053376;28;20294;-63
2022/01/12 04:19:29;;;;;;;16.27;12.07;;;;;;;;;;5046760;28;20596;-62
2022/01/12 04:22:06;;;;;;;17.53;12.63;;;;;;;;;;5048690;28;20271;-64
2022/01/12 04:24:35;;;;;;;18.07;12.73;;;;;;;;;;5052587;28;20223;-63
2022/01/12 04:27:03;;;;;;;16.30;13.13;;;;;;;;;;5055230;28;20227;-63
2022/01/12 04:29:30;;;;;;;19.87;13.20;;;;;;;;;;5078325;27;20233;-63
2022/01/12 04:31:57;;;;;;;16.47;12.10;;;;;;;;;;5052633;28;20217;-63
2022/01/12 04:34:25;;;;;;;19.00;12.70;;;;;;;;;;5049717;28;20208;-61
2022/01/12 04:36:52;;;;;;;15.20;11.40;;;;;;;;;;5081174;27;20675;-62
2022/01/12 04:39:19;;;;;;;17.00;11.57;;;;;;;;;;5050441;28;20710;-62
2022/01/12 04:41:47;;;;;;;16.80;13.00;;;;;;;;;;5083570;27;20343;-63
2022/01/12 04:44:15;;;;;;;17.77;13.60;;;;;;;;;;5050336;28;20598;-62
2022/01/12 04:47:03;;;;;;;18.13;13.93;;;;;;;;;;5056137;28;20212;-63
2022/01/12 04:52:17;;;;;;;16.13;12.07;;;;;;;;;;5068538;28;20231;-62
2022/01/12 04:54:50;;;;;;;15.63;11.97;;;;;;;;;;5065488;28;20206;-63
2022/01/12 04:57:17;;;;;;;12.67;10.20;;;;;;;;;;5047582;28;20221;-63
2022/01/12 05:00:01;;;;;;;18.63;13.23;;;;;;;;;;5057618;28;20224;-64
2022/01/12 05:08:22;;;;;;;22.70;15.70;;;;;;;;;;5076396;28;20229;-61
2022/01/12 05:13:37;;;;;;;20.00;14.40;;;;;;;;;;5093970;28;20211;-62
2022/01/12 05:16:04;;;;;;;18.97;13.63;;;;;;;;;;5060910;28;20205;-61
2022/01/12 05:18:33;;;;;;;21.17;15.03;;;;;;;;;;5063249;28;20278;-63
2022/01/12 05:21:01;;;;;;;19.70;13.30;;;;;;;;;;5057827;28;20744;-63
2022/01/12 05:23:28;;;;;;;23.43;15.63;;;;;;;;;;5059286;28;20198;-62
2022/01/12 05:25:56;;;;;;;22.80;15.43;;;;;;;;;;5061524;28;20201;-63
2022/01/12 05:28:24;;;;;;;23.27;15.57;;;;;;;;;;5055590;28;20247;-62
2022/01/12 05:30:53;;;;;;;22.60;15.93;;;;;;;;;;5063850;28;21009;-62
2022/01/12 05:33:22;;;;;;;21.10;13.97;;;;;;;;;;5088094;28;20254;-62
2022/01/12 05:35:50;;;;;;;21.23;15.27;;;;;;;;;;5062488;28;20202;-62
2022/01/12 05:38:17;;;;;;;18.13;13.87;;;;;;;;;;5064511;28;20241;-64
2022/01/12 05:40:47;;;;;;;17.70;13.63;;;;;;;;;;5088654;27;20255;-64
2022/01/12 05:43:17;;;;;;;17.97;13.40;;;;;;;;;;5071118;28;20242;-63
2022/01/12 05:45:45;;;;;;;18.07;13.67;;;;;;;;;;5090917;28;20599;-63
2022/01/12 05:50:40;;;;;;;16.13;12.43;;;;;;;;;;5081996;28;20216;-63
2022/01/12 05:53:08;;;;;;;16.93;12.43;;;;;;;;;;5069051;28;20216;-62
2022/01/12 05:55:36;;;;;;;18.07;13.13;;;;;;;;;;5064361;28;20232;-62
2022/01/12 05:58:03;;;;;;;17.13;13.00;;;;;;;;;;5067529;28;20229;-63
2022/01/12 06:00:30;;;;;;;18.37;13.60;;;;;;;;;;5088672;28;20664;-63
2022/01/12 06:02:58;;;;;;;24.80;16.57;;;;;;;;;;5093925;28;20265;-63
2022/01/12 06:05:28;;;;;;;18.37;12.70;;;;;;;;;;5065120;28;20258;-62
2022/01/12 06:07:55;;;;;;;22.30;15.03;;;;;;;;;;5060809;28;20222;-62
2022/01/12 06:10:23;;;;;;;25.73;15.30;;;;;;;;;;5062286;28;20201;-63
2022/01/12 06:12:51;;;;;;;22.10;14.97;;;;;;;;;;5067339;28;20246;-64
2022/01/12 06:15:19;;;;;;;22.23;14.97;;;;;;;;;;5058499;28;20597;-63
2022/01/12 06:17:47;;;;;;;23.30;14.67;;;;;;;;;;5065639;28;20251;-62
2022/01/12 06:20:15;;;;;;;16.37;13.07;;;;;;;;;;5061129;28;20236;-62
2022/01/12 06:22:42;;;;;;;16.90;12.83;;;;;;;;;;5061271;28;20230;-63
2022/01/12 06:25:14;;;;;;;20.40;14.53;;;;;;;;;;5064851;28;20204;-63
2022/01/12 06:27:50;;;;;;;19.57;14.47;;;;;;;;;;5090972;27;20736;-63
2022/01/12 06:32:56;;;;;;;21.87;14.80;;;;;;;;;;5078880;28;20254;-63
2022/01/12 06:35:25;;;;;;;22.30;16.43;;;;;;;;;;5078199;28;20604;-63
2022/01/12 06:37:53;;;;;;;20.50;15.27;;;;;;;;;;5063801;28;20606;-62
2022/01/12 06:40:20;;;;;;;25.73;16.90;;;;;;;;;;5059689;28;20222;-62
2022/01/12 06:42:48;;;;;;;23.97;17.43;;;;;;;;;;5072407;28;20262;-63
2022/01/12 06:45:15;;;;;;;21.60;15.77;;;;;;;;;;5073641;28;20201;-63
2022/01/12 06:47:43;;;;;;;23.90;16.17;;;;;;;;;;5067655;28;20213;-62
2022/01/12 06:50:14;;;;;;;21.63;14.63;;;;;;;;;;5066854;28;20227;-62
2022/01/12 06:52:41;;;;;;;27.10;18.30;;;;;;;;;;5087594;28;20234;-63
2022/01/12 06:55:09;;;;;;;21.60;14.80;;;;;;;;;;5067666;28;20278;-63
2022/01/12 06:57:36;;;;;;;20.93;14.83;;;;;;;;;;5071169;28;20594;-62
2022/01/12 07:00:05;;;;;;;21.03;14.40;;;;;;;;;;5068061;28;20226;-63
2022/01/12 07:02:32;;;;;;;24.47;16.40;;;;;;;;;;5069635;28;20201;-63
2022/01/12 07:05:00;;;;;;;29.33;18.77;;;;;;;;;;5085289;28;20680;-62
2022/01/12 07:07:27;;;;;;;20.17;15.07;;;;;;;;;;5074587;28;20702;-63
2022/01/12 07:09:54;;;;;;;21.23;16.07;;;;;;;;;;5073712;28;20215;-62
2022/01/12 07:12:22;;;;;;;20.10;14.97;;;;;;;;;;5071202;28;20296;-63
2022/01/12 07:14:49;;;;;;;16.30;12.30;;;;;;;;;;5060261;28;20213;-63
2022/01/12 07:17:17;;;;;;;18.87;14.77;;;;;;;;;;5094193;27;20918;-64
2022/01/12 07:19:44;;;;;;;23.63;16.00;;;;;;;;;;5065639;28;20669;-64
2022/01/12 07:22:12;;;;;;;20.43;15.03;;;;;;;;;;5071115;28;20331;-63
2022/01/12 07:24:39;;;;;;;20.23;14.03;;;;;;;;;;5079151;28;20208;-63
2022/01/12 07:27:07;;;;;;;18.93;14.27;;;;;;;;;;5062106;28;20221;-62
2022/01/12 07:29:35;;;;;;;18.93;14.90;;;;;;;;;;5098635;27;20621;-63
2022/01/12 07:32:02;;;;;;;22.47;16.17;;;;;;;;;;5070725;28;20231;-63
2022/01/12 07:34:29;;;;;;;20.03;14.93;;;;;;;;;;5064387;28;20209;-63
2022/01/12 07:36:59;;;;;;;20.10;14.23;;;;;;;;;;5091076;28;20206;-63
2022/01/12 07:39:26;;;;;;;21.07;14.80;;;;;;;;;;5100573;27;20228;-64
2022/01/12 07:41:53;;;;;;;17.73;13.73;;;;;;;;;;5071977;28;20197;-64
2022/01/12 07:44:21;;;;;;;21.60;15.00;;;;;;;;;;5073836;28;20231;-62
2022/01/12 07:46:48;;;;;;;22.83;15.73;;;;;;;;;;5074030;28;20215;-63
2022/01/12 07:49:16;;;;;;;18.10;13.87;;;;;;;;;;5059690;28;20213;-63
2022/01/12 07:51:43;;;;;;;20.10;14.50;;;;;;;;;;5062442;28;20201;-62
2022/01/12 07:54:11;;;;;;;21.47;15.20;;;;;;;;;;5069397;28;20264;-62
2022/01/12 07:56:38;;;;;;;21.60;14.90;;;;;;;;;;5062290;28;20274;-64
2022/01/12 07:59:05;;;;;;;21.73;15.30;;;;;;;;;;5063995;28;20252;-62
2022/01/12 08:01:33;;;;;;;19.10;14.43;;;;;;;;;;5068354;28;20223;-62
2022/01/12 08:04:00;;;;;;;19.50;14.03;;;;;;;;;;5057566;28;20288;-62
2022/01/12 08:06:28;;;;;;;20.33;15.77;;;;;;;;;;5054678;28;20736;-62
2022/01/12 08:08:56;;;;;;;22.30;15.90;;;;;;;;;;5049436;28;20228;-62
2022/01/12 08:11:24;;;;;;;21.37;15.27;;;;;;;;;;5076511;28;20620;-64
2022/01/12 08:13:52;;;;;;;19.17;14.20;;;;;;;;;;5067423;28;20717;-63
2022/01/12 08:16:20;;;;;;;21.10;14.47;;;;;;;;;;5068874;28;20291;-63
2022/01/12 08:18:47;;;;;;;19.90;14.60;;;;;;;;;;5066217;28;20947;-63
2022/01/12 08:21:14;;;;;;;19.37;13.97;;;;;;;;;;5074503;28;20216;-63
2022/01/12 08:23:42;;;;;;;19.67;14.10;;;;;;;;;;5066560;28;20193;-63
2022/01/12 08:26:10;;;;;;;22.70;15.13;;;;;;;;;;5062865;28;20205;-62
2022/01/12 08:28:37;;;;;;;24.50;16.67;;;;;;;;;;5057278;28;20274;-62
2022/01/12 08:31:05;;;;;;;26.17;16.67;;;;;;;;;;5066080;28;20193;-62
2022/01/12 08:33:33;;;;;;;19.93;14.27;;;;;;;;;;5067720;28;20238;-62
2022/01/12 08:36:00;;;;;;;20.67;13.87;;;;;;;;;;5092846;27;20263;-62
2022/01/12 08:38:28;;;;;;;18.90;13.93;;;;;;;;;;5058710;28;20245;-62
2022/01/12 08:40:55;;;;;;;21.30;14.23;;;;;;;;;;5060841;28;20229;-63
2022/01/12 08:43:23;;;;;;;21.80;14.33;;;;;;;;;;5071869;28;20197;-63
2022/01/12 08:45:52;;;;;;;20.93;14.70;;;;;;;;;;5068118;28;20292;-63
2022/01/12 08:48:21;;;;;;;21.20;15.17;;;;;;;;;;5079712;28;20634;-64
2022/01/12 08:50:49;;;;;;;20.87;14.63;;;;;;;;;;5081001;28;20245;-62
2022/01/12 08:53:16;;;;;;;24.70;16.03;;;;;;;;;;5077622;28;20220;-63
2022/01/12 08:55:43;;;;;;;22.53;15.23;;;;;;;;;;5062672;28;20225;-61
2022/01/12 08:58:11;;;;;;;20.80;15.00;;;;;;;;;;5066465;28;20228;-63
2022/01/12 09:00:38;;;;;;;19.40;14.13;;;;;;;;;;5063157;28;20220;-64
2022/01/12 09:03:06;;;;;;;19.70;14.60;;;;;;;;;;5070576;28;20206;-64
2022/01/12 09:05:34;;;;;;;17.23;13.23;;;;;;;;;;5070335;28;20215;-64
2022/01/12 09:08:01;;;;;;;18.77;13.50;;;;;;;;;;5071361;28;20770;-62
2022/01/12 09:10:28;;;;;;;15.93;12.10;;;;;;;;;;5066892;28;20678;-64
2022/01/12 09:12:56;;;;;;;17.53;13.40;;;;;;;;;;5072431;28;20212;-62
2022/01/12 09:15:25;;;;;;;18.43;14.00;;;;;;;;;;5058808;28;20214;-62
2022/01/12 09:17:53;;;;;;;24.17;16.83;;;;;;;;;;5060328;28;20278;-62
2022/01/12 09:20:21;;;;;;;33.50;19.97;;;;;;;;;;5063762;28;20218;-64
2022/01/12 09:22:49;;;;;;;19.33;14.93;;;;;;;;;;5070454;28;20201;-63
2022/01/12 09:25:16;;;;;;;23.30;15.17;;;;;;;;;;5077381;28;20206;-63
2022/01/12 09:27:44;;;;;;;18.63;12.37;;;;;;;;;;5099723;27;20225;-63
2022/01/12 09:30:12;;;;;;;23.53;15.33;;;;;;;;;;5068471;28;20522;-63
2022/01/12 09:32:40;;;;;;;25.33;17.00;;;;;;;;;;5094781;27;20259;-64
2022/01/12 09:35:07;;;;;;;22.27;16.37;;;;;;;;;;5074290;28;20264;-64
2022/01/12 09:37:35;;;;;;;20.00;14.57;;;;;;;;;;5098571;27;20221;-63
2022/01/12 09:40:04;;;;;;;16.70;12.80;;;;;;;;;;5075460;28;20320;-64
2022/01/12 09:42:32;;;;;;;17.53;12.97;;;;;;;;;;5070060;28;20209;-63
2022/01/12 09:45:01;;;;;;;19.77;14.57;;;;;;;;;;5065192;28;20194;-63
2022/01/12 09:47:28;;;;;;;18.70;13.47;;;;;;;;;;5058133;28;20999;-64
2022/01/12 09:49:56;;;;;;;18.93;13.83;;;;;;;;;;5063079;28;20199;-63
2022/01/12 09:52:23;;;;;;;19.63;15.13;;;;;;;;;;5096228;28;20207;-63
2022/01/12 09:54:51;;;;;;;19.47;15.00;;;;;;;;;;5061884;28;20209;-62
2022/01/12 09:57:18;;;;;;;17.53;13.67;;;;;;;;;;5065849;28;20279;-62
2022/01/12 09:59:46;;;;;;;20.60;15.30;;;;;;;;;;5057859;28;20223;-63
2022/01/12 10:02:15;;;;;;;21.63;16.17;;;;;;;;;;5063030;28;20211;-64
2022/01/12 10:04:42;;;;;;;48.60;30.50;;;;;;;;;;5062233;28;20206;-62
2022/01/12 10:07:11;;;;;;;15.83;12.57;;;;;;;;;;5064683;28;20259;-63
2022/01/12 10:09:39;;;;;;;36.10;25.73;;;;;;;;;;5056745;28;20616;-64
2022/01/12 10:12:12;;;;;;;22.70;17.10;;;;;;;;;;5077439;28;20245;-62
2022/01/12 10:14:48;;;;;;;17.57;13.07;;;;;;;;;;5049829;28;20607;-62
2022/01/12 10:17:16;;;;;;;17.40;13.07;;;;;;;;;;5092300;28;20235;-63
2022/01/12 10:19:43;;;;;;;15.73;12.47;;;;;;;;;;5080814;28;20227;-62
2022/01/12 10:22:14;;;;;;;17.17;13.23;;;;;;;;;;5069517;28;20700;-62
2022/01/12 10:24:43;;;;;;;16.90;12.80;;;;;;;;;;5091544;28;20193;-64
2022/01/12 10:27:12;;;;;;;15.43;12.03;;;;;;;;;;5061646;28;20632;-64
2022/01/12 10:29:39;;;;;;;18.40;13.80;;;;;;;;;;5065278;28;20220;-63
2022/01/12 10:32:10;;;;;;;17.87;13.43;;;;;;;;;;5052725;28;20204;-63
2022/01/12 10:34:45;;;;;;;18.23;13.40;;;;;;;;;;5089886;28;20961;-64
2022/01/12 10:37:16;;;;;;;15.60;12.80;;;;;;;;;;5060089;28;20228;-62
2022/01/12 10:39:45;;;;;;;17.30;13.63;;;;;;;;;;5093265;28;20314;-62
2022/01/12 10:42:14;;;;;;;20.90;14.03;;;;;;;;;;5063636;28;20207;-62
2022/01/12 10:44:47;;;;;;;15.80;12.47;;;;;;;;;;5057206;28;20670;-63
2022/01/12 10:47:20;;;;;;;14.53;11.83;;;;;;;;;;5079348;28;20304;-63
2022/01/12 10:49:58;;;;;;;14.37;11.70;;;;;;;;;;5065611;28;20233;-63
2022/01/12 10:52:27;;;;;;;13.70;11.20;;;;;;;;;;5063804;28;20204;-62
2022/01/12 10:54:55;;;;;;;14.70;11.70;;;;;;;;;;5083888;28;20201;-61
2022/01/12 10:57:31;;;;;;;14.93;12.07;;;;;;;;;;5061417;28;20297;-63
2022/01/12 11:00:01;;;;;;;15.57;12.00;;;;;;;;;;5095209;28;20224;-61
2022/01/12 11:02:29;;;;;;;13.57;11.33;;;;;;;;;;5064887;28;20205;-63
2022/01/12 11:04:58;;;;;;;14.13;11.43;;;;;;;;;;5066949;28;20205;-62
2022/01/12 11:07:26;;;;;;;14.10;11.10;;;;;;;;;;5057469;28;20225;-63
2022/01/12 11:09:55;;;;;;;13.53;10.97;;;;;;;;;;5058634;28;20224;-62
2022/01/12 11:12:23;;;;;;;15.27;11.80;;;;;;;;;;5067884;28;20208;-62
2022/01/12 11:14:52;;;;;;;13.90;11.37;;;;;;;;;;5063816;28;20201;-64
2022/01/12 11:17:19;;;;;;;14.70;11.83;;;;;;;;;;5059595;28;20235;-62
2022/01/12 11:19:58;;;;;;;14.73;12.50;;;;;;;;;;5075991;28;20574;-62
2022/01/12 11:22:28;;;;;;;16.40;12.27;;;;;;;;;;5063455;28;20246;-62
2022/01/12 11:24:56;;;;;;;23.50;12.40;;;;;;;;;;5062355;28;20633;-62
2022/01/12 11:27:23;;;;;;;16.50;13.33;;;;;;;;;;5092394;27;20227;-63
2022/01/12 11:29:50;;;;;;;16.53;11.97;;;;;;;;;;5077311;28;20212;-62
2022/01/12 11:32:22;;;;;;;18.03;13.07;;;;;;;;;;5098380;27;20208;-62
2022/01/12 11:35:04;;;;;;;17.63;12.53;;;;;;;;;;5083198;28;20243;-63
2022/01/12 11:37:46;;;;;;;14.13;11.57;;;;;;;;;;5093400;27;20225;-63
2022/01/12 11:40:13;;;;;;;16.07;12.40;;;;;;;;;;5064585;28;21475;-63
2022/01/12 11:42:41;;;;;;;15.83;12.07;;;;;;;;;;5088431;27;20406;-63
2022/01/12 11:45:19;;;;;;;15.90;12.77;;;;;;;;;;5085391;28;20229;-62
2022/01/12 11:47:46;;;;;;;15.73;11.93;;;;;;;;;;5065554;28;20228;-64
2022/01/12 11:50:14;;;;;;;16.47;12.03;;;;;;;;;;5073024;28;20301;-61
2022/01/12 11:52:42;;;;;;;15.90;11.87;;;;;;;;;;5104374;27;20208;-61
2022/01/12 11:55:14;;;;;;;16.30;11.37;;;;;;;;;;5067024;28;20250;-63
2022/01/12 11:57:46;;;;;;;15.07;12.00;;;;;;;;;;5068629;28;20228;-62
2022/01/12 12:00:14;;;;;;;14.60;11.43;;;;;;;;;;5067672;28;20749;-62
2022/01/12 12:02:48;;;;;;;18.00;12.37;;;;;;;;;;5078564;28;20220;-62
2022/01/12 12:05:23;;;;;;;16.00;12.00;;;;;;;;;;5110434;27;20204;-62
2022/01/12 12:07:52;;;;;;;13.47;10.70;;;;;;;;;;5071836;28;20224;-63
2022/01/12 12:10:21;;;;;;;14.20;11.20;;;;;;;;;;5071277;28;20209;-63
2022/01/12 12:12:50;;;;;;;14.93;11.33;;;;;;;;;;5060632;28;20210;-62
2022/01/12 12:15:17;;;;;;;13.07;10.37;;;;;;;;;;5066660;28;20655;-63
2022/01/12 12:17:45;;;;;;;15.10;11.27;;;;;;;;;;5079953;28;20255;-62
2022/01/12 12:20:17;;;;;;;14.13;10.80;;;;;;;;;;5068059;28;20751;-63
2022/01/12 12:22:46;;;;;;;14.03;11.27;;;;;;;;;;5071482;28;20769;-62
2022/01/12 12:25:15;;;;;;;12.67;10.47;;;;;;;;;;5068677;28;20251;-62
2022/01/12 12:27:50;;;;;;;14.70;11.03;;;;;;;;;;5086382;28;20636;-64
2022/01/12 12:30:18;;;;;;;14.00;10.67;;;;;;;;;;5072127;28;20254;-64
2022/01/12 12:32:47;;;;;;;14.93;10.03;;;;;;;;;;5066850;28;20201;-62
2022/01/12 12:35:14;;;;;;;15.47;10.97;;;;;;;;;;5080203;28;20584;-63
2022/01/12 12:37:46;;;;;;;14.00;10.60;;;;;;;;;;5087860;28;20229;-63
2022/01/12 12:40:19;;;;;;;13.37;10.47;;;;;;;;;;5069248;28;20233;-62
2022/01/12 12:42:50;;;;;;;13.83;10.60;;;;;;;;;;5071320;28;20212;-63
2022/01/12 12:45:18;;;;;;;11.93;9.47;;;;;;;;;;5081288;28;20682;-62
2022/01/12 12:47:45;;;;;;;12.57;9.83;;;;;;;;;;5102087;27;20694;-63
2022/01/12 12:50:14;;;;;;;12.33;9.50;;;;;;;;;;5065446;28;20201;-64
2022/01/12 12:52:42;;;;;;;11.57;9.07;;;;;;;;;;5063687;28;20216;-64
2022/01/12 12:55:17;;;;;;;12.60;9.20;;;;;;;;;;5065730;28;20204;-62
2022/01/12 12:57:46;;;;;;;12.10;9.37;;;;;;;;;;5066522;28;20228;-62
2022/01/12 13:00:16;;;;;;;11.50;9.57;;;;;;;;;;5083726;28;20290;-63
2022/01/12 13:02:48;;;;;;;12.00;9.97;;;;;;;;;;5095795;27;20242;-64
2022/01/12 13:05:17;;;;;;;11.70;9.90;;;;;;;;;;5093496;27;20704;-63
2022/01/12 13:07:46;;;;;;;16.67;10.90;;;;;;;;;;5059544;28;20721;-62
2022/01/12 13:10:15;;;;;;;13.47;10.33;;;;;;;;;;5064929;28;20212;-62
2022/01/12 13:12:43;;;;;;;14.47;11.03;;;;;;;;;;5058753;28;20220;-62
2022/01/12 13:15:16;;;;;;;14.10;11.03;;;;;;;;;;5061720;28;20250;-62
2022/01/12 13:17:44;;;;;;;13.87;11.07;;;;;;;;;;5078947;28;20856;-63
2022/01/12 13:23:02;;;;;;;17.30;11.67;;;;;;;;;;5084394;28;20204;-62
2022/01/12 13:25:30;;;;;;;12.80;10.50;;;;;;;;;;5098967;27;20199;-61
2022/01/12 13:27:58;;;;;;;14.70;11.07;;;;;;;;;;5068803;28;20225;-63
2022/01/12 13:30:27;;;;;;;16.27;11.10;;;;;;;;;;5063944;28;20732;-62
2022/01/12 13:32:55;;;;;;;14.40;11.10;;;;;;;;;;5069168;28;20235;-63
2022/01/12 13:35:31;;;;;;;15.10;11.57;;;;;;;;;;5075876;28;20202;-62
2022/01/12 13:38:00;;;;;;;15.77;11.70;;;;;;;;;;5067693;28;20221;-62
2022/01/12 13:40:44;;;;;;;14.47;11.43;;;;;;;;;;5073427;28;20225;-62
2022/01/12 13:43:12;;;;;;;17.00;12.10;;;;;;;;;;5097651;28;20673;-63
2022/01/12 13:45:46;;;;;;;15.00;10.83;;;;;;;;;;5059765;28;20203;-64
2022/01/12 13:48:17;;;;;;;16.93;11.50;;;;;;;;;;5065104;28;20300;-64
2022/01/12 13:50:55;;;;;;;15.17;11.67;;;;;;;;;;5065373;28;20671;-63
2022/01/12 13:53:38;;;;;;;14.30;11.03;;;;;;;;;;5065976;28;20253;-62
2022/01/12 13:56:06;;;;;;;16.07;11.53;;;;;;;;;;5076215;28;20201;-63
2022/01/12 13:58:38;;;;;;;13.97;11.03;;;;;;;;;;5065203;28;20287;-62
2022/01/12 14:01:13;;;;;;;14.17;11.00;;;;;;;;;;5061921;28;20323;-63
2022/01/12 14:03:50;;;;;;;16.90;11.57;;;;;;;;;;5078817;28;20220;-62
2022/01/12 14:06:20;;;;;;;16.70;11.33;;;;;;;;;;5097983;28;20206;-62
2022/01/12 14:08:53;;;;;;;15.13;11.20;;;;;;;;;;5061886;28;20221;-64
2022/01/12 14:11:21;;;;;;;15.27;10.73;;;;;;;;;;5076189;28;20335;-62
2022/01/12 14:13:48;;;;;;;19.50;11.87;;;;;;;;;;5061637;28;20213;-61
2022/01/12 14:16:17;;;;;;;14.97;10.97;;;;;;;;;;5068424;28;20205;-62
2022/01/12 14:18:44;;;;;;;15.53;10.83;;;;;;;;;;5059822;28;21036;-63
2022/01/12 14:21:21;;;;;;;14.67;10.90;;;;;;;;;;5080988;28;20228;-63
2022/01/12 14:23:49;;;;;;;14.33;10.97;;;;;;;;;;5069867;28;20205;-62
2022/01/12 14:26:24;;;;;;;15.20;11.20;;;;;;;;;;5064572;28;20254;-62
2022/01/12 14:28:52;;;;;;;12.67;10.17;;;;;;;;;;5059319;28;20220;-61
2022/01/12 14:31:20;;;;;;;15.67;11.53;;;;;;;;;;5059233;28;20302;-61
2022/01/12 14:33:48;;;;;;;15.00;11.70;;;;;;;;;;5094511;28;20227;-62
2022/01/12 14:36:16;;;;;;;18.37;11.43;;;;;;;;;;5061667;28;20249;-62
2022/01/12 14:38:44;;;;;;;18.10;12.73;;;;;;;;;;5058847;28;20733;-62
2022/01/12 14:41:11;;;;;;;16.43;12.43;;;;;;;;;;5062182;28;20763;-62
2022/01/12 14:43:39;;;;;;;17.33;11.70;;;;;;;;;;5064010;28;20259;-61
2022/01/12 14:46:07;;;;;;;18.33;11.73;;;;;;;;;;5072357;28;20200;-62
2022/01/12 14:48:35;;;;;;;17.83;11.40;;;;;;;;;;5068471;28;20229;-63
2022/01/12 14:51:02;;;;;;;15.73;11.67;;;;;;;;;;5065110;28;20215;-62
2022/01/12 14:53:29;;;;;;;16.93;11.23;;;;;;;;;;5063954;28;20576;-62
2022/01/12 14:55:58;;;;;;;15.13;11.47;;;;;;;;;;5069807;28;20212;-64
2022/01/12 14:58:27;;;;;;;15.00;11.50;;;;;;;;;;5094879;27;20354;-62
2022/01/12 15:00:55;;;;;;;15.43;10.93;;;;;;;;;;5071005;28;20267;-63
2022/01/12 15:03:23;;;;;;;20.83;12.40;;;;;;;;;;5075495;28;20205;-63
2022/01/12 15:05:51;;;;;;;18.90;11.90;;;;;;;;;;5073415;28;20287;-63
2022/01/12 15:08:19;;;;;;;19.93;12.40;;;;;;;;;;5067759;28;20230;-63
2022/01/12 15:10:47;;;;;;;19.27;11.70;;;;;;;;;;5098787;27;20210;-64
2022/01/12 15:15:56;;;;;;;17.63;12.50;;;;;;;;;;5080875;28;20675;-62
2022/01/12 15:18:25;;;;;;;17.17;12.47;;;;;;;;;;5079644;28;20229;-61
2022/01/12 15:20:57;;;;;;;16.60;12.37;;;;;;;;;;5068075;28;20248;-62
2022/01/12 15:23:24;;;;;;;19.93;12.93;;;;;;;;;;5061293;28;20208;-63
2022/01/12 15:25:54;;;;;;;19.80;13.63;;;;;;;;;;5065022;28;20206;-63
2022/01/12 15:28:21;;;;;;;19.87;13.00;;;;;;;;;;5066924;28;20232;-64
2022/01/12 15:30:48;;;;;;;21.43;13.60;;;;;;;;;;5073303;28;20213;-63
2022/01/12 15:33:16;;;;;;;17.23;13.27;;;;;;;;;;5068246;28;20726;-62
2022/01/12 15:35:43;;;;;;;19.93;14.30;;;;;;;;;;5079816;28;20674;-62
2022/01/12 15:38:12;;;;;;;20.40;14.53;;;;;;;;;;5095985;27;20704;-63
2022/01/12 15:40:40;;;;;;;22.93;13.83;;;;;;;;;;5068900;28;20822;-63
2022/01/12 15:43:08;;;;;;;22.87;14.13;;;;;;;;;;5056861;28;20212;-62
2022/01/12 15:45:37;;;;;;;19.97;13.60;;;;;;;;;;5074710;28;22038;-62
2022/01/12 15:48:06;;;;;;;21.37;13.77;;;;;;;;;;5080177;28;20700;-62
2022/01/12 15:50:34;;;;;;;24.03;15.17;;;;;;;;;;5068195;28;20207;-64
2022/01/12 15:53:03;;;;;;;19.63;14.07;;;;;;;;;;5056809;28;20214;-63
2022/01/12 15:55:30;;;;;;;21.00;14.53;;;;;;;;;;5085191;28;20228;-63